Trinity, Florida
Current Conditions -  °F | °C
As of 11:53 PM on Wednesday 22 Oct 2014 (Local Time) from KBKV Reporting Station
Clear Clear  
Wind Chill: 64°   Ceiling: Unl
Heat Index: 64°   Visibility: 10mi
Dew Point: 58°   Wind: 7mph
Humidity: 80%   Direction: 40°NE
Pressure: 30.01"   Gusts: NA
Location:  28.2318°N, 82.5991°W
Report Text: KBKV 230353Z AUTO 04006KT 10SM CLR 18/14 A3001 RMK AO2 SLP162 T01780144
Loading
Personal Weather Stations






























Interactive Weather Map
Tropical Storm Tracking
New forecast layout! Learn more

10-Day Weather Forecast

Advertisements
Track Severe Weather on mobile